createdAt,value
2022-09-18T11:01:48.688Z,32.50
2022-09-18T11:20:09.024Z,32.70
2022-09-18T11:22:54.917Z,32.00
2022-09-18T11:25:32.890Z,32.10
2022-09-18T11:28:41.949Z,32.20
2022-09-18T11:31:21.629Z,32.20
2022-09-18T11:34:05.595Z,32.30
2022-09-18T11:36:42.930Z,32.50
2022-09-18T11:39:21.352Z,32.40
2022-09-18T11:41:56.855Z,32.20
2022-09-18T11:44:35.373Z,32.50
2022-09-18T11:47:41.805Z,32.60
2022-09-18T11:50:27.232Z,32.50
2022-09-18T11:53:05.827Z,32.40
2022-09-18T11:55:55.448Z,32.50
2022-09-18T11:58:56.072Z,32.50
2022-09-18T12:01:56.354Z,32.20
2022-09-18T12:04:51.178Z,32.30
2022-09-18T12:08:01.083Z,31.80
2022-09-18T12:11:08.998Z,31.70
2022-09-18T12:14:14.539Z,31.50
2022-09-18T12:17:01.820Z,31.40
2022-09-18T12:19:50.133Z,31.20
2022-09-18T12:22:45.825Z,30.60
2022-09-18T12:25:20.221Z,30.10
2022-09-18T12:28:50.788Z,29.80
2022-09-18T12:32:01.021Z,29.80
2022-09-18T12:35:03.547Z,29.70
2022-09-18T12:38:13.305Z,29.60
2022-09-18T12:41:13.493Z,29.60
2022-09-18T12:44:11.080Z,29.60
2022-09-18T12:47:15.049Z,29.60
2022-09-18T12:50:28.533Z,29.40
2022-09-18T12:53:27.422Z,29.10
2022-09-18T12:56:47.392Z,29.00
2022-09-18T12:59:57.126Z,29.10
2022-09-18T13:03:07.631Z,29.20
2022-09-18T13:05:53.323Z,29.10
2022-09-18T13:08:47.158Z,29.10
2022-09-18T13:11:41.231Z,29.10
2022-09-18T13:14:35.921Z,29.30
2022-09-18T13:17:30.630Z,29.50
2022-09-18T13:20:24.323Z,29.50
2022-09-18T13:23:00.323Z,29.40
2022-09-18T13:25:41.296Z,29.10
2022-09-18T13:28:17.446Z,29.10
2022-09-18T13:31:10.861Z,29.10
2022-09-18T13:33:50.923Z,29.00
2022-09-18T13:36:42.788Z,29.20
2022-09-18T13:39:40.896Z,29.20
2022-09-18T13:42:42.341Z,29.10
2022-09-18T13:45:26.866Z,29.00
2022-09-18T13:48:08.523Z,29.00
2022-09-18T13:50:50.205Z,29.00
2022-09-18T13:53:43.723Z,28.90
2022-09-18T13:56:16.654Z,28.80
2022-09-18T13:58:59.865Z,29.00
2022-09-18T14:02:08.304Z,28.80
2022-09-18T14:05:01.675Z,28.70
2022-09-18T14:08:09.747Z,28.60
2022-09-18T14:11:15.389Z,28.80
2022-09-18T14:13:57.369Z,28.90
2022-09-18T14:16:35.947Z,28.70
2022-09-18T14:19:33.547Z,28.70
2022-09-18T14:22:15.110Z,28.80
2022-09-18T14:24:59.330Z,28.90
2022-09-18T14:27:59.265Z,28.90
2022-09-18T14:30:36.710Z,28.70
2022-09-18T14:33:23.800Z,28.60
2022-09-18T14:36:08.125Z,28.60
2022-09-18T14:38:45.686Z,28.60
2022-09-18T14:41:27.150Z,28.80
2022-09-18T14:44:05.806Z,28.60
2022-09-18T14:46:36.433Z,28.70
2022-09-18T14:49:27.616Z,28.70
2022-09-18T14:52:03.940Z,28.70
2022-09-18T14:54:41.086Z,28.50
2022-09-18T14:57:15.075Z,28.50
2022-09-18T14:59:45.762Z,28.30
2022-09-18T15:02:36.150Z,28.20
2022-09-18T15:05:14.923Z,28.20
2022-09-18T15:08:15.786Z,28.10
2022-09-18T15:10:50.606Z,28.00
2022-09-18T15:13:23.667Z,28.00
2022-09-18T15:16:08.594Z,28.10
2022-09-18T15:18:45.417Z,28.00
2022-09-18T15:21:41.290Z,28.00
2022-09-18T15:24:18.206Z,28.10
2022-09-18T15:26:57.057Z,28.10
2022-09-18T15:29:45.460Z,28.00
2022-09-18T15:32:36.442Z,28.10
2022-09-18T15:35:11.036Z,28.00
2022-09-18T15:37:42.965Z,27.90
2022-09-18T15:40:22.588Z,28.00
2022-09-18T15:43:08.221Z,27.90
2022-09-18T15:45:40.174Z,28.00
2022-09-18T15:48:41.490Z,27.90
2022-09-18T15:51:27.795Z,27.80
2022-09-18T15:54:36.793Z,27.90
2022-09-18T15:57:08.001Z,27.70
2022-09-18T15:59:42.440Z,27.80
2022-09-18T16:02:41.103Z,27.70
2022-09-18T16:05:20.015Z,27.60
2022-09-18T16:08:03.808Z,27.70
2022-09-18T16:10:55.119Z,27.80
2022-09-18T16:13:41.800Z,27.80
2022-09-18T16:16:25.849Z,27.80
2022-09-18T16:19:11.953Z,27.80
2022-09-18T16:21:46.375Z,27.80
2022-09-18T16:24:31.911Z,27.80
2022-09-18T16:27:10.305Z,27.80
2022-09-18T16:29:41.781Z,27.70
2022-09-18T16:32:14.242Z,27.70
2022-09-18T16:34:48.609Z,27.50
2022-09-18T16:37:19.237Z,27.50
2022-09-18T16:39:49.857Z,27.60
2022-09-18T16:42:21.966Z,27.70
2022-09-18T16:44:54.125Z,27.90
2022-09-18T16:47:28.470Z,27.90
2022-09-18T16:49:59.097Z,28.20
2022-09-18T16:52:29.953Z,28.10
2022-09-18T16:55:00.497Z,28.10
2022-09-18T16:57:31.888Z,28.20
2022-09-18T17:00:10.490Z,28.30
2022-09-18T17:02:41.322Z,28.50
2022-09-18T17:05:12.978Z,28.20
2022-09-18T17:07:45.508Z,27.90
2022-09-18T17:10:16.940Z,27.70
2022-09-18T17:12:48.395Z,27.60
2022-09-18T17:15:19.190Z,27.50
2022-09-18T17:17:50.509Z,27.70
2022-09-18T17:20:21.873Z,27.60
2022-09-18T17:22:53.303Z,27.60
2022-09-18T17:25:24.288Z,27.50
2022-09-18T17:27:55.438Z,27.40
2022-09-18T17:30:27.403Z,27.30
2022-09-18T17:32:58.513Z,27.20
2022-09-18T17:35:29.574Z,27.10
2022-09-18T17:38:00.453Z,27.00
2022-09-18T17:40:31.478Z,27.00
2022-09-18T17:43:02.448Z,26.90
2022-09-18T17:45:35.269Z,26.90
2022-09-18T17:48:06.399Z,26.80
2022-09-18T17:50:38.675Z,26.70
2022-09-18T17:53:10.778Z,26.60
2022-09-18T17:55:41.757Z,26.60
2022-09-18T17:58:13.303Z,26.60
2022-09-18T18:00:44.214Z,26.70
2022-09-18T18:03:15.639Z,26.70
2022-09-18T18:06:06.322Z,26.70
2022-09-18T18:08:37.707Z,26.70
2022-09-18T18:11:14.621Z,26.60
2022-09-18T18:13:47.257Z,26.60
2022-09-18T18:16:25.275Z,26.70
2022-09-18T18:18:58.935Z,26.80
2022-09-18T18:21:30.836Z,26.70
2022-09-18T18:24:05.398Z,26.70
2022-09-18T18:26:36.517Z,26.70
2022-09-18T18:29:13.031Z,26.80
2022-09-18T18:31:45.053Z,26.70
2022-09-18T18:34:17.159Z,26.60
2022-09-18T18:36:48.196Z,26.60
2022-09-18T18:39:19.453Z,26.60
2022-09-18T18:41:50.358Z,26.50
2022-09-18T18:44:20.875Z,26.60
2022-09-18T18:46:53.023Z,26.50
2022-09-18T18:49:24.083Z,26.70
2022-09-18T18:51:55.178Z,26.80
2022-09-18T20:00:30.044Z,26.70
2022-09-18T20:15:38.637Z,26.40
2022-09-18T20:20:41.008Z,26.40
2022-09-18T20:23:12.210Z,26.50
2022-09-18T20:25:43.007Z,26.50
2022-09-18T20:28:13.586Z,26.50
2022-09-18T20:30:44.691Z,26.50
2022-09-18T20:33:15.641Z,26.50
2022-09-18T20:35:47.345Z,26.60
2022-09-18T20:38:18.307Z,26.60
2022-09-18T20:40:58.300Z,26.50
2022-09-18T20:43:30.252Z,26.50
2022-09-18T20:46:09.105Z,26.50
2022-09-18T20:48:43.235Z,26.60
2022-09-18T21:01:28.250Z,26.60
2022-09-18T21:04:04.091Z,26.50
2022-09-18T21:06:36.213Z,26.50
2022-09-18T21:09:10.428Z,26.50
2022-09-18T21:11:46.723Z,26.50
2022-09-18T21:14:17.964Z,26.50
2022-09-18T21:16:49.930Z,26.40
2022-09-18T21:21:52.922Z,26.40
2022-09-18T21:26:55.674Z,26.30
2022-09-18T21:29:29.092Z,26.40
2022-09-18T21:32:01.958Z,26.30
2022-09-18T21:34:35.783Z,26.30
2022-09-18T21:37:13.801Z,26.40
2022-09-18T21:39:45.987Z,26.40
2022-09-18T21:42:18.963Z,26.40
2022-09-18T21:44:49.549Z,26.40
2022-09-18T21:47:20.352Z,26.40
2022-09-18T21:52:22.242Z,26.40
2022-09-18T21:54:54.143Z,26.40
2022-09-18T21:57:25.042Z,26.40
2022-09-18T21:59:56.242Z,26.40
2022-09-18T22:02:28.367Z,26.40
2022-09-18T22:04:59.784Z,26.30
2022-09-18T22:07:32.234Z,26.30
2022-09-18T22:10:02.763Z,26.40
2022-09-18T22:12:34.638Z,26.30
2022-09-18T22:15:05.556Z,26.40
2022-09-18T22:17:36.712Z,26.40
2022-09-18T22:20:07.773Z,26.40
2022-09-18T22:22:38.610Z,26.30
2022-09-18T22:25:09.755Z,26.30
2022-09-18T22:30:12.503Z,26.40
2022-09-18T22:32:43.340Z,26.40
2022-09-18T22:35:14.021Z,26.30
2022-09-18T22:37:44.530Z,26.30
2022-09-18T22:40:15.468Z,26.30
2022-09-18T22:42:46.920Z,26.30
2022-09-18T22:45:18.221Z,26.30
2022-09-18T22:47:48.823Z,26.40
2022-09-18T22:52:50.976Z,26.30
2022-09-18T22:55:22.999Z,26.30
2022-09-18T22:57:54.927Z,26.30
2022-09-18T23:00:25.798Z,26.20
2022-09-18T23:10:30.583Z,26.30
2022-09-18T23:18:03.712Z,26.30
2022-09-18T23:20:34.641Z,26.40
2022-09-18T23:23:06.313Z,26.30
2022-09-18T23:25:38.467Z,26.40
2022-09-18T23:28:09.394Z,26.50
2022-09-18T23:30:40.654Z,26.40
2022-09-18T23:33:11.575Z,26.40
2022-09-18T23:35:42.482Z,26.50
2022-09-18T23:40:44.904Z,26.40
2022-09-18T23:43:16.455Z,26.50
2022-09-18T23:45:47.826Z,26.50
2022-09-18T23:48:18.662Z,26.40
2022-09-18T23:50:49.158Z,26.50
2022-09-18T23:53:23.909Z,26.40
2022-09-18T23:55:54.475Z,26.50
2022-09-18T23:58:24.939Z,26.60
